createdAt,value
2019-05-03T00:00:22.362Z,45.10
2019-05-03T00:01:22.045Z,45.10
2019-05-03T00:02:22.029Z,47.20
2019-05-03T00:03:22.503Z,48.50
2019-05-03T00:04:22.397Z,47.00
2019-05-03T00:05:22.075Z,46.10
2019-05-03T00:06:22.623Z,44.70
2019-05-03T00:07:22.366Z,42.40
2019-05-03T00:08:21.819Z,44.40
2019-05-03T00:09:22.529Z,42.30
2019-05-03T00:10:22.364Z,43.70
2019-05-03T00:11:22.105Z,41.50
2019-05-03T00:12:22.118Z,41.90
2019-05-03T00:13:21.859Z,42.70
2019-05-03T00:14:21.819Z,41.00
2019-05-03T00:15:21.617Z,39.10
2019-05-03T00:16:21.927Z,39.20
2019-05-03T00:17:21.873Z,36.40
2019-05-03T00:18:22.140Z,37.00
2019-05-03T00:19:21.929Z,38.50
2019-05-03T00:20:21.932Z,36.60
2019-05-03T00:21:21.948Z,39.00
2019-05-03T00:22:21.681Z,36.10
2019-05-03T00:23:22.808Z,34.80
2019-05-03T00:24:22.609Z,35.10
2019-05-03T00:25:22.135Z,32.90
2019-05-03T00:26:22.532Z,33.90
2019-05-03T00:27:21.766Z,31.70
2019-05-03T00:28:21.694Z,30.50
2019-05-03T00:29:22.003Z,32.50
2019-05-03T00:30:22.494Z,32.30
2019-05-03T00:31:22.476Z,30.60
2019-05-03T00:32:21.701Z,32.40
2019-05-03T00:33:22.481Z,33.30
2019-05-03T00:34:21.847Z,31.20
2019-05-03T00:35:22.475Z,32.90
2019-05-03T00:36:22.391Z,34.00
2019-05-03T00:37:22.074Z,34.80
2019-05-03T00:38:21.845Z,35.50
2019-05-03T00:39:21.700Z,36.10
2019-05-03T00:40:21.549Z,34.30
2019-05-03T00:41:21.532Z,35.10
2019-05-03T00:42:22.397Z,33.50
2019-05-03T00:43:22.145Z,33.50
2019-05-03T00:44:22.124Z,33.60
2019-05-03T00:45:22.002Z,33.70
2019-05-03T00:46:21.975Z,35.60
2019-05-03T00:47:22.046Z,35.30
2019-05-03T00:48:21.804Z,37.30
2019-05-03T00:49:20.008Z,33.10
2019-05-03T00:50:19.968Z,34.60
2019-05-03T00:51:19.953Z,35.90
2019-05-03T00:52:19.887Z,34.80
2019-05-03T00:53:19.847Z,34.30
2019-05-03T00:54:19.805Z,35.20
2019-05-03T00:55:21.886Z,36.90
2019-05-03T00:56:21.504Z,37.10
2019-05-03T00:57:19.673Z,37.80
2019-05-03T00:58:19.632Z,34.50
2019-05-03T00:59:19.585Z,36.50
2019-05-03T01:00:21.633Z,35.50
2019-05-03T01:01:19.510Z,34.80
2019-05-03T01:02:19.485Z,35.60
2019-05-03T01:03:19.419Z,33.10
2019-05-03T01:04:19.381Z,34.10
2019-05-03T01:05:19.341Z,35.70
2019-05-03T01:06:19.296Z,36.80
2019-05-03T01:07:19.273Z,36.40
2019-05-03T01:08:19.206Z,35.80
2019-05-03T01:09:19.165Z,35.70
2019-05-03T01:10:19.122Z,35.50
2019-05-03T01:11:19.107Z,34.70
2019-05-03T01:12:19.044Z,37.20
2019-05-03T01:13:18.999Z,35.10
2019-05-03T01:14:18.959Z,37.20
2019-05-03T01:15:18.917Z,37.10
2019-05-03T01:16:18.866Z,35.60
2019-05-03T01:17:18.848Z,36.10
2019-05-03T01:18:18.816Z,34.80
2019-05-03T01:19:18.750Z,36.10
2019-05-03T01:20:18.697Z,33.60
2019-05-03T01:21:18.656Z,34.30
2019-05-03T01:22:18.637Z,32.80
2019-05-03T01:23:18.573Z,32.10
2019-05-03T01:24:18.617Z,34.90
2019-05-03T01:25:29.241Z,33.30
2019-05-03T01:26:18.453Z,31.60
2019-05-03T01:27:18.409Z,31.40
2019-05-03T01:28:18.390Z,32.70
2019-05-03T01:29:18.317Z,32.40
2019-05-03T01:30:18.274Z,31.90
2019-05-03T01:31:18.231Z,29.90
2019-05-03T01:32:18.197Z,31.70
2019-05-03T01:33:18.157Z,31.30
2019-05-03T01:34:18.135Z,31.10
2019-05-03T01:35:18.063Z,31.50
2019-05-03T01:36:18.026Z,30.00
2019-05-03T01:37:17.986Z,31.60
2019-05-03T01:38:19.483Z,31.60
2019-05-03T01:39:17.901Z,31.80
2019-05-03T01:40:17.889Z,32.90
2019-05-03T01:41:17.811Z,32.50
2019-05-03T01:42:17.769Z,31.80
2019-05-03T01:43:17.729Z,33.00
2019-05-03T01:44:17.689Z,33.20
2019-05-03T01:45:17.646Z,32.40
2019-05-03T01:46:17.630Z,31.90
2019-05-03T01:47:17.571Z,30.60
2019-05-03T01:48:17.516Z,32.30
2019-05-03T01:49:17.471Z,34.20
2019-05-03T01:50:17.437Z,36.90
2019-05-03T01:51:17.394Z,38.20
2019-05-03T01:52:17.367Z,38.60
2019-05-03T01:53:17.323Z,39.30
2019-05-03T01:54:17.261Z,43.30
2019-05-03T01:55:17.220Z,43.00
2019-05-03T01:56:17.180Z,44.50
2019-05-03T01:57:17.162Z,44.90
2019-05-03T01:58:17.105Z,45.60
2019-05-03T01:59:17.134Z,44.90
2019-05-03T02:00:17.004Z,46.10
2019-05-03T02:01:16.990Z,43.50
2019-05-03T02:02:16.924Z,43.40
2019-05-03T02:03:16.879Z,39.60
2019-05-03T02:04:16.840Z,42.60
2019-05-03T02:05:16.798Z,43.50
2019-05-03T02:06:16.748Z,44.20
2019-05-03T02:07:16.737Z,44.10
2019-05-03T02:08:16.678Z,42.80
2019-05-03T02:09:16.628Z,41.80
2019-05-03T02:10:16.610Z,39.70
2019-05-03T02:11:16.539Z,36.80
2019-05-03T02:12:16.523Z,37.30
2019-05-03T02:13:16.458Z,36.10
2019-05-03T02:14:16.409Z,36.00
2019-05-03T02:15:16.369Z,34.90
2019-05-03T02:16:16.325Z,31.40
2019-05-03T02:17:16.307Z,32.20
2019-05-03T02:18:16.245Z,31.30
2019-05-03T02:19:16.201Z,31.20
2019-05-03T02:20:16.153Z,30.70
2019-05-03T02:21:16.120Z,31.30
2019-05-03T02:22:16.097Z,29.90
2019-05-03T02:23:16.052Z,28.20
2019-05-03T02:24:15.983Z,29.30
2019-05-03T02:25:15.938Z,27.20
2019-05-03T02:26:15.903Z,28.70
2019-05-03T02:27:15.851Z,27.90
2019-05-03T02:28:15.838Z,27.70
2019-05-03T02:29:15.774Z,25.40
2019-05-03T02:30:15.738Z,23.90
2019-05-03T02:31:15.693Z,25.00
2019-05-03T02:32:15.641Z,23.70
2019-05-03T02:33:15.619Z,23.60
2019-05-03T02:34:15.582Z,21.80
2019-05-03T02:35:15.540Z,21.90
2019-05-03T02:36:15.474Z,21.10
2019-05-03T02:37:15.439Z,19.90
2019-05-03T02:38:15.386Z,17.70
2019-05-03T02:39:15.352Z,18.40
2019-05-03T02:40:15.329Z,18.40
2019-05-03T02:41:15.265Z,18.60
2019-05-03T02:42:16.161Z,17.80
2019-05-03T02:43:16.542Z,16.90
2019-05-03T02:44:15.708Z,19.20
2019-05-03T02:45:15.528Z,18.80
2019-05-03T02:46:16.717Z,18.40
2019-05-03T02:47:15.902Z,18.30
2019-05-03T02:48:16.523Z,19.00
2019-05-03T02:49:15.427Z,17.90
2019-05-03T02:50:16.733Z,18.00
2019-05-03T02:51:15.628Z,16.30
2019-05-03T02:52:15.200Z,17.30
2019-05-03T02:53:15.776Z,17.20
2019-05-03T02:54:15.656Z,16.90
2019-05-03T02:55:16.088Z,17.60
2019-05-03T02:56:22.014Z,16.90
2019-05-03T02:57:15.124Z,17.10
2019-05-03T02:58:15.932Z,17.20
2019-05-03T02:59:15.738Z,17.10
2019-05-03T03:00:16.301Z,17.30
2019-05-03T03:01:16.267Z,16.40
2019-05-03T03:02:15.198Z,16.90
2019-05-03T03:03:16.615Z,16.80
2019-05-03T03:04:15.713Z,16.50
2019-05-03T03:05:16.605Z,17.30
2019-05-03T03:06:15.714Z,17.50
2019-05-03T03:07:15.150Z,17.30
2019-05-03T03:08:16.251Z,16.50
2019-05-03T03:09:16.503Z,16.30
2019-05-03T03:10:16.171Z,16.60
2019-05-03T03:11:15.566Z,16.60
2019-05-03T03:12:15.238Z,16.20
2019-05-03T03:13:16.327Z,16.10
2019-05-03T03:14:16.622Z,14.50
2019-05-03T03:15:16.083Z,15.60
2019-05-03T03:16:16.271Z,15.00
2019-05-03T03:17:14.935Z,15.10
2019-05-03T03:18:15.709Z,15.10
2019-05-03T03:19:15.876Z,15.20
2019-05-03T03:20:15.898Z,15.80
2019-05-03T03:21:15.973Z,16.00
2019-05-03T03:22:15.818Z,16.70
2019-05-03T03:23:17.815Z,16.70
2019-05-03T03:24:16.371Z,17.30
2019-05-03T03:25:13.385Z,17.20
2019-05-03T03:26:15.589Z,16.40
2019-05-03T03:27:16.083Z,16.90
2019-05-03T03:28:15.715Z,16.80
2019-05-03T03:29:15.722Z,16.50
2019-05-03T03:30:17.081Z,16.90
2019-05-03T03:31:17.373Z,17.00
2019-05-03T03:32:17.684Z,17.70
2019-05-03T03:33:17.175Z,18.40
2019-05-03T03:34:17.902Z,17.60
2019-05-03T03:35:14.860Z,19.60
2019-05-03T03:36:42.156Z,19.50
2019-05-03T03:37:15.301Z,19.20
2019-05-03T03:38:15.349Z,19.00
2019-05-03T03:39:14.980Z,19.60
2019-05-03T03:40:12.749Z,18.80
2019-05-03T03:41:12.712Z,19.10
2019-05-03T03:42:12.657Z,20.00
2019-05-03T03:43:12.637Z,20.00
2019-05-03T03:44:15.164Z,19.90
2019-05-03T03:45:12.534Z,20.40
2019-05-03T03:46:12.497Z,20.60
2019-05-03T03:47:12.469Z,19.60
2019-05-03T03:48:12.424Z,21.50
2019-05-03T03:49:12.361Z,22.00
2019-05-03T03:50:15.042Z,21.60
2019-05-03T03:51:12.275Z,21.00
2019-05-03T03:52:12.236Z,22.00
2019-05-03T03:53:12.217Z,23.00
2019-05-03T03:54:12.173Z,22.80
2019-05-03T03:55:12.107Z,23.10
2019-05-03T03:56:12.062Z,24.90
2019-05-03T03:57:12.019Z,24.50
2019-05-03T03:58:11.977Z,23.80
2019-05-03T03:59:11.965Z,24.30
2019-05-03T04:00:11.886Z,25.00
2019-05-03T04:01:11.847Z,24.90
2019-05-03T04:02:11.800Z,26.70
2019-05-03T04:03:11.762Z,25.80
2019-05-03T04:04:11.720Z,25.40
2019-05-03T04:05:11.702Z,24.50
2019-05-03T04:06:11.636Z,23.90
2019-05-03T04:07:11.593Z,24.80
2019-05-03T04:08:11.559Z,24.20
2019-05-03T04:09:11.523Z,25.20
2019-05-03T04:10:11.458Z,24.70
2019-05-03T04:11:11.420Z,25.90
2019-05-03T04:12:11.404Z,25.80
2019-05-03T04:13:11.337Z,25.90
2019-05-03T04:14:11.290Z,25.90
2019-05-03T04:15:11.270Z,25.70
2019-05-03T04:16:11.229Z,25.70
2019-05-03T04:17:11.201Z,25.30
2019-05-03T04:18:11.123Z,25.60
2019-05-03T04:19:11.078Z,24.90
2019-05-03T04:20:11.039Z,24.90
2019-05-03T04:21:10.996Z,26.30
2019-05-03T04:22:10.970Z,27.00
2019-05-03T04:23:10.914Z,26.50
2019-05-03T04:24:10.868Z,25.80
2019-05-03T04:25:10.825Z,25.80
2019-05-03T04:26:10.780Z,27.00
2019-05-03T04:27:19.685Z,26.20
2019-05-03T04:28:10.713Z,24.60
2019-05-03T04:29:10.652Z,26.20
2019-05-03T04:30:10.619Z,25.40
2019-05-03T04:31:10.567Z,25.80
2019-05-03T04:32:10.520Z,27.00
2019-05-03T04:33:10.504Z,26.20
2019-05-03T04:34:10.433Z,24.80
2019-05-03T04:35:10.437Z,27.10
2019-05-03T04:36:10.352Z,25.60
2019-05-03T04:37:10.320Z,28.00
2019-05-03T04:38:10.269Z,27.30
2019-05-03T04:39:10.252Z,27.60
2019-05-03T04:40:10.173Z,27.80
2019-05-03T04:41:10.133Z,26.60
2019-05-03T04:42:10.094Z,26.50
2019-05-03T04:43:10.051Z,26.30
2019-05-03T04:44:10.042Z,24.40
2019-05-03T04:45:09.975Z,19.10
2019-05-03T04:46:09.924Z,12.60
2019-05-03T04:47:09.879Z,12.00
2019-05-03T04:48:09.841Z,10.70
2019-05-03T04:49:09.802Z,10.70
2019-05-03T04:50:09.784Z,9.80
2019-05-03T04:51:09.719Z,10.60
2019-05-03T04:52:09.668Z,9.10
2019-05-03T04:53:09.624Z,8.60
2019-05-03T04:54:09.576Z,9.10
2019-05-03T04:55:09.540Z,9.10
2019-05-03T04:56:09.525Z,9.60
2019-05-03T04:57:09.456Z,9.20
2019-05-03T04:58:09.417Z,9.80
2019-05-03T04:59:09.378Z,9.90
2019-05-03T05:00:11.513Z,8.80
2019-05-03T05:01:09.293Z,10.40
2019-05-03T05:02:09.226Z,9.20
2019-05-03T05:03:09.184Z,9.20
2019-05-03T05:04:09.136Z,9.50
2019-05-03T05:05:09.096Z,9.80
2019-05-03T05:06:09.078Z,10.00
2019-05-03T05:07:09.010Z,10.00
2019-05-03T05:08:08.992Z,10.10
2019-05-03T05:09:08.928Z,10.10
2019-05-03T05:10:08.884Z,9.20
2019-05-03T05:11:10.542Z,9.50
2019-05-03T05:12:08.792Z,9.90
2019-05-03T05:13:08.751Z,9.10
2019-05-03T05:14:08.707Z,10.00
2019-05-03T05:15:08.665Z,9.60
2019-05-03T05:16:08.632Z,8.70
2019-05-03T05:17:08.625Z,8.70
2019-05-03T05:18:08.559Z,9.40
2019-05-03T05:19:08.513Z,8.60
2019-05-03T05:20:08.452Z,8.40
2019-05-03T05:21:08.419Z,9.00
2019-05-03T05:22:08.366Z,9.60
2019-05-03T05:23:08.351Z,9.50
2019-05-03T05:24:08.283Z,8.50
2019-05-03T05:25:08.234Z,9.00
2019-05-03T05:26:08.199Z,8.70
2019-05-03T05:27:08.150Z,7.40
2019-05-03T05:28:08.137Z,7.90
2019-05-03T05:29:08.075Z,7.40
2019-05-03T05:30:08.035Z,7.80
2019-05-03T05:31:08.012Z,7.80
2019-05-03T05:32:07.945Z,7.20
2019-05-03T05:33:07.894Z,7.40
2019-05-03T05:34:08.899Z,8.30
2019-05-03T05:35:07.817Z,7.80
2019-05-03T05:36:07.801Z,7.60
2019-05-03T05:37:07.724Z,7.60
2019-05-03T05:38:07.679Z,7.10
2019-05-03T05:39:07.637Z,6.70
2019-05-03T05:40:07.604Z,7.20
2019-05-03T05:41:07.569Z,7.80
2019-05-03T05:42:07.538Z,6.30
2019-05-03T05:43:07.490Z,6.00
2019-05-03T05:44:07.429Z,7.20
2019-05-03T05:45:07.397Z,6.50
2019-05-03T05:46:07.372Z,6.60
2019-05-03T05:47:07.307Z,6.90
2019-05-03T05:48:07.325Z,6.50
2019-05-03T05:49:07.236Z,6.10
2019-05-03T05:50:07.189Z,6.40
2019-05-03T05:51:07.146Z,6.20
2019-05-03T05:52:07.090Z,6.90
2019-05-03T05:53:07.047Z,6.40
2019-05-03T05:54:07.026Z,6.50
2019-05-03T05:55:06.962Z,6.30
2019-05-03T05:56:06.926Z,6.40
2019-05-03T05:57:08.430Z,6.60
2019-05-03T05:58:08.300Z,6.60
2019-05-03T05:59:06.828Z,6.50
2019-05-03T06:00:06.756Z,5.80
2019-05-03T06:01:06.714Z,6.50
2019-05-03T06:02:06.669Z,6.30
2019-05-03T06:03:06.627Z,6.50
2019-05-03T06:04:06.589Z,6.30
2019-05-03T06:05:06.571Z,6.80
2019-05-03T06:06:06.500Z,6.00
2019-05-03T06:07:06.462Z,6.50
2019-05-03T06:08:06.424Z,6.50
2019-05-03T06:09:06.382Z,7.00
2019-05-03T06:10:06.392Z,7.80
2019-05-03T06:11:06.301Z,6.40
2019-05-03T06:12:06.290Z,6.70
2019-05-03T06:13:06.225Z,7.50
2019-05-03T06:14:06.168Z,7.40
2019-05-03T06:15:06.125Z,6.70
2019-05-03T06:16:06.113Z,6.60
2019-05-03T06:17:06.050Z,7.10
2019-05-03T06:18:06.016Z,7.40
2019-05-03T06:19:05.967Z,6.30
2019-05-03T06:20:05.920Z,6.40
2019-05-03T06:21:05.909Z,6.40
2019-05-03T06:22:05.845Z,6.50
2019-05-03T06:23:05.807Z,5.50
2019-05-03T06:24:05.759Z,7.30
2019-05-03T06:25:06.646Z,5.60
2019-05-03T06:26:05.675Z,6.20
2019-05-03T06:27:05.633Z,5.60
2019-05-03T06:28:17.312Z,6.40
2019-05-03T06:29:05.564Z,6.20
2019-05-03T06:30:05.520Z,6.10
2019-05-03T06:31:05.511Z,5.70
2019-05-03T06:32:05.530Z,5.80
2019-05-03T06:33:05.440Z,5.70
2019-05-03T06:34:05.376Z,5.20
2019-05-03T06:35:05.324Z,5.50
2019-05-03T06:36:05.283Z,4.70
2019-05-03T06:37:05.287Z,4.80
2019-05-03T06:38:05.218Z,5.00
2019-05-03T06:39:08.127Z,4.60
2019-05-03T06:40:06.022Z,4.70
2019-05-03T06:41:05.096Z,4.70
2019-05-03T06:42:05.261Z,5.10
2019-05-03T06:43:09.753Z,5.10
2019-05-03T06:44:04.982Z,4.30
2019-05-03T06:45:10.535Z,4.60
2019-05-03T06:46:05.405Z,4.80
2019-05-03T06:47:08.754Z,4.70
2019-05-03T06:48:05.510Z,4.60
2019-05-03T06:49:06.510Z,4.70
2019-05-03T06:50:05.490Z,4.20
2019-05-03T06:51:09.212Z,4.40
2019-05-03T06:52:05.917Z,4.70
2019-05-03T06:53:10.321Z,4.80
2019-05-03T06:54:05.096Z,4.50
2019-05-03T06:55:07.972Z,4.40
2019-05-03T06:56:04.666Z,5.10
2019-05-03T06:57:05.686Z,4.40
2019-05-03T06:58:05.082Z,4.10
2019-05-03T06:59:05.228Z,4.20
2019-05-03T07:00:05.333Z,4.00
2019-05-03T07:01:04.699Z,4.30
2019-05-03T07:02:05.590Z,4.30
2019-05-03T07:03:04.898Z,4.30
2019-05-03T07:04:05.111Z,4.30
2019-05-03T07:05:05.113Z,3.70
2019-05-03T07:06:04.519Z,3.60
2019-05-03T07:07:05.246Z,4.10
2019-05-03T07:08:05.141Z,3.50
2019-05-03T07:09:05.337Z,3.80
2019-05-03T07:10:05.063Z,3.90
2019-05-03T07:11:05.186Z,3.80
2019-05-03T07:12:04.490Z,3.90
2019-05-03T07:13:04.979Z,4.00
2019-05-03T07:14:05.275Z,4.10
2019-05-03T07:15:05.239Z,3.90
2019-05-03T07:16:04.688Z,4.10
2019-05-03T07:17:05.559Z,4.10
2019-05-03T07:18:05.564Z,4.60
2019-05-03T07:19:04.432Z,3.90
2019-05-03T07:20:04.650Z,3.70
2019-05-03T07:21:04.862Z,4.40
2019-05-03T07:22:05.008Z,4.20
2019-05-03T07:23:04.377Z,3.70
2019-05-03T07:24:05.279Z,3.50
2019-05-03T07:25:04.663Z,3.80
2019-05-03T07:26:05.357Z,3.50
2019-05-03T07:27:05.291Z,3.70
2019-05-03T07:28:04.425Z,4.00
2019-05-03T07:29:04.977Z,3.60
2019-05-03T07:30:04.827Z,3.20
2019-05-03T07:31:04.775Z,3.40
2019-05-03T07:32:05.072Z,2.70
2019-05-03T07:33:04.834Z,2.80
2019-05-03T07:34:05.070Z,2.70
2019-05-03T07:35:04.528Z,3.00
2019-05-03T07:36:05.125Z,3.20
2019-05-03T07:37:03.100Z,3.00
2019-05-03T07:38:03.056Z,3.00
2019-05-03T07:39:03.017Z,2.60
2019-05-03T07:40:04.737Z,2.80
2019-05-03T07:41:05.101Z,2.60
2019-05-03T07:42:02.916Z,2.80
2019-05-03T07:43:04.524Z,3.20
2019-05-03T07:44:02.849Z,3.00
2019-05-03T07:45:04.820Z,2.90
2019-05-03T07:46:02.756Z,2.70
2019-05-03T07:47:04.686Z,2.60
2019-05-03T07:48:04.549Z,2.60
2019-05-03T07:49:04.887Z,2.70
2019-05-03T07:50:02.623Z,2.50
2019-05-03T07:51:02.617Z,2.40
2019-05-03T07:52:02.574Z,2.60
2019-05-03T07:53:04.499Z,2.60
2019-05-03T07:54:04.536Z,2.60
2019-05-03T07:55:04.510Z,2.60
2019-05-03T07:56:02.397Z,2.60
2019-05-03T07:57:02.406Z,2.70
2019-05-03T07:58:04.526Z,2.50
2019-05-03T07:59:04.225Z,2.70
2019-05-03T08:00:02.266Z,2.50
2019-05-03T08:01:08.754Z,2.50
2019-05-03T08:02:02.837Z,2.60
2019-05-03T08:03:02.460Z,2.30
2019-05-03T08:04:02.144Z,2.50
2019-05-03T08:05:02.112Z,2.60
2019-05-03T08:06:02.062Z,2.80
2019-05-03T08:07:02.060Z,2.70
2019-05-03T08:08:02.017Z,2.60
2019-05-03T08:09:01.973Z,2.40
2019-05-03T08:10:05.040Z,2.40
2019-05-03T08:11:02.108Z,2.30
2019-05-03T08:12:01.884Z,2.40
2019-05-03T08:13:01.827Z,2.30
2019-05-03T08:14:01.786Z,2.20
2019-05-03T08:15:01.756Z,2.00
2019-05-03T08:16:01.748Z,2.60
2019-05-03T08:17:01.714Z,2.40
2019-05-03T08:18:01.660Z,2.40
2019-05-03T08:19:01.625Z,2.50
2019-05-03T08:20:01.604Z,2.30
2019-05-03T08:21:01.584Z,3.00
2019-05-03T08:22:01.520Z,3.10
2019-05-03T08:23:01.501Z,2.90
2019-05-03T08:24:01.477Z,2.90
2019-05-03T08:25:01.566Z,2.70
2019-05-03T08:26:01.427Z,3.20
2019-05-03T08:27:01.386Z,2.90
2019-05-03T08:28:01.371Z,3.00
2019-05-03T08:29:13.330Z,3.20
2019-05-03T08:30:01.265Z,3.00
2019-05-03T08:31:01.244Z,3.50
2019-05-03T08:32:01.181Z,4.00
2019-05-03T08:33:01.318Z,3.90
2019-05-03T08:34:01.217Z,3.40
2019-05-03T08:35:01.164Z,3.30
2019-05-03T08:36:01.436Z,3.40
2019-05-03T08:37:01.169Z,3.60
2019-05-03T08:38:00.979Z,3.80
2019-05-03T08:39:01.119Z,3.50
2019-05-03T08:40:01.164Z,3.80
2019-05-03T08:41:00.868Z,3.60
2019-05-03T08:42:00.888Z,3.50
2019-05-03T08:43:00.824Z,3.40
2019-05-03T08:44:00.764Z,3.50
2019-05-03T08:45:00.731Z,3.40
2019-05-03T08:46:00.921Z,3.80
2019-05-03T08:47:00.781Z,4.20
2019-05-03T08:48:00.642Z,3.80
2019-05-03T08:49:00.590Z,3.80
2019-05-03T08:50:00.574Z,4.10
2019-05-03T08:51:00.581Z,4.00
2019-05-03T08:52:00.505Z,3.70
2019-05-03T08:53:00.510Z,3.40
2019-05-03T08:54:00.403Z,3.70
2019-05-03T08:55:00.365Z,3.50
2019-05-03T08:56:00.341Z,3.40
2019-05-03T08:57:00.322Z,3.40
2019-05-03T08:58:00.260Z,3.10
2019-05-03T08:59:00.235Z,2.90
2019-05-03T09:00:00.206Z,2.50
2019-05-03T09:01:00.147Z,2.50
2019-05-03T09:02:05.205Z,2.20
2019-05-03T09:03:00.101Z,2.60
2019-05-03T09:04:00.037Z,2.40
2019-05-03T09:05:00.025Z,2.70
2019-05-03T09:05:59.965Z,2.90
2019-05-03T09:06:59.931Z,3.00
2019-05-03T09:07:59.910Z,3.00
2019-05-03T09:08:59.862Z,2.80
2019-05-03T09:09:59.853Z,3.00
2019-05-03T09:10:59.798Z,2.60
2019-05-03T09:11:59.754Z,2.40
2019-05-03T09:12:59.723Z,2.50
2019-05-03T09:13:59.677Z,2.90
2019-05-03T09:14:59.670Z,2.60
2019-05-03T09:15:59.628Z,2.80
2019-05-03T09:16:59.581Z,2.50
2019-05-03T09:17:59.542Z,2.60
2019-05-03T09:18:59.511Z,2.60
2019-05-03T09:19:59.481Z,2.40
2019-05-03T09:20:59.467Z,2.40
2019-05-03T09:21:59.410Z,2.50
2019-05-03T09:22:59.438Z,2.50
2019-05-03T09:23:59.335Z,2.30
2019-05-03T09:24:59.306Z,2.30
2019-05-03T09:25:59.292Z,2.30
2019-05-03T09:26:59.237Z,2.20
2019-05-03T09:27:59.223Z,2.50
2019-05-03T09:28:59.175Z,2.20
2019-05-03T09:29:59.142Z,2.50
2019-05-03T09:30:59.132Z,2.30
2019-05-03T09:31:59.068Z,2.40
2019-05-03T09:32:59.043Z,2.20
2019-05-03T09:33:59.005Z,2.20
2019-05-03T09:34:58.983Z,2.40
2019-05-03T09:35:58.964Z,1.90
2019-05-03T09:36:58.901Z,2.40
2019-05-03T09:37:58.866Z,2.10
2019-05-03T09:38:58.830Z,2.50
2019-05-03T09:39:58.804Z,2.40
2019-05-03T09:40:58.768Z,2.20
2019-05-03T09:41:58.758Z,2.50
2019-05-03T09:42:58.702Z,2.50
2019-05-03T09:43:58.680Z,2.40
2019-05-03T09:44:58.622Z,2.60
2019-05-03T09:45:58.590Z,2.40
2019-05-03T09:46:58.581Z,2.40
2019-05-03T09:47:58.546Z,2.40
2019-05-03T09:49:10.199Z,2.30
2019-05-03T09:49:58.653Z,2.50
2019-05-03T09:50:58.575Z,2.20
2019-05-03T09:51:58.517Z,2.40
2019-05-03T09:52:58.353Z,2.30
2019-05-03T09:53:58.315Z,2.20
2019-05-03T09:54:58.282Z,2.30
2019-05-03T09:55:58.262Z,2.50
2019-05-03T09:56:58.824Z,2.50
2019-05-03T09:57:58.171Z,2.20
2019-05-03T09:58:58.137Z,2.20
2019-05-03T10:00:00.026Z,2.40
2019-05-03T10:00:58.104Z,2.30
2019-05-03T10:01:58.041Z,2.30
2019-05-03T10:02:58.015Z,2.50
2019-05-03T10:03:57.970Z,2.40
2019-05-03T10:04:57.936Z,2.40
2019-05-03T10:05:57.912Z,2.30
2019-05-03T10:06:57.906Z,2.40
2019-05-03T10:07:57.845Z,2.40
2019-05-03T10:08:57.803Z,2.30
2019-05-03T10:09:57.773Z,2.40
2019-05-03T10:10:57.745Z,2.40
2019-05-03T10:11:57.713Z,2.20
2019-05-03T10:12:57.708Z,2.40
2019-05-03T10:13:57.647Z,2.90
2019-05-03T10:14:57.612Z,3.20
2019-05-03T10:15:57.570Z,3.10
2019-05-03T10:16:57.534Z,3.20
2019-05-03T10:17:57.501Z,3.30
2019-05-03T10:18:57.492Z,3.80
2019-05-03T10:19:57.435Z,3.10
2019-05-03T10:20:57.400Z,3.10
2019-05-03T10:21:57.361Z,3.10
2019-05-03T10:22:57.324Z,3.30
2019-05-03T10:23:57.319Z,2.80
2019-05-03T10:24:57.262Z,3.10
2019-05-03T10:25:57.228Z,3.20
2019-05-03T10:26:57.196Z,3.10
2019-05-03T10:27:57.152Z,3.10
2019-05-03T10:28:57.131Z,2.70
2019-05-03T10:30:09.582Z,2.80
2019-05-03T10:30:57.039Z,2.70
2019-05-03T10:31:57.009Z,3.50
2019-05-03T10:32:56.973Z,3.60
2019-05-03T10:33:56.960Z,3.30
2019-05-03T10:34:56.932Z,3.50
2019-05-03T10:35:56.858Z,4.20
2019-05-03T10:36:56.825Z,3.80
2019-05-03T10:37:56.797Z,3.80
2019-05-03T10:38:56.783Z,4.00
2019-05-03T10:39:56.718Z,3.80
2019-05-03T10:40:56.711Z,4.10
2019-05-03T10:41:56.644Z,4.00
2019-05-03T10:42:56.612Z,4.10
2019-05-03T10:43:56.579Z,3.70
2019-05-03T10:44:56.541Z,3.30
2019-05-03T10:45:56.509Z,2.80
2019-05-03T10:46:56.493Z,2.60
2019-05-03T10:47:56.430Z,2.80
2019-05-03T10:48:56.417Z,2.50
2019-05-03T10:49:56.392Z,2.60
2019-05-03T10:50:56.559Z,2.70
2019-05-03T10:51:56.301Z,2.10
2019-05-03T10:52:56.264Z,2.20
2019-05-03T10:53:56.224Z,2.30
2019-05-03T10:54:56.194Z,2.20
2019-05-03T10:55:56.192Z,2.40
2019-05-03T10:56:56.133Z,2.30
2019-05-03T10:57:56.101Z,2.20
2019-05-03T10:58:56.065Z,2.30
2019-05-03T10:59:56.022Z,2.60
2019-05-03T11:00:56.713Z,2.30
2019-05-03T11:01:55.981Z,2.40
2019-05-03T11:02:55.923Z,2.40
2019-05-03T11:03:55.897Z,2.50
2019-05-03T11:04:55.865Z,2.50
2019-05-03T11:05:55.856Z,2.30
2019-05-03T11:06:55.819Z,2.60
2019-05-03T11:07:55.752Z,2.50
2019-05-03T11:08:55.719Z,2.50
2019-05-03T11:09:55.703Z,2.60
2019-05-03T11:10:55.657Z,2.30
2019-05-03T11:11:55.784Z,2.50
2019-05-03T11:12:55.603Z,2.50
2019-05-03T11:13:55.547Z,2.40
2019-05-03T11:14:55.513Z,2.50
2019-05-03T11:15:55.482Z,2.40
2019-05-03T11:16:55.493Z,2.50
2019-05-03T11:17:55.438Z,2.80
2019-05-03T11:18:55.380Z,2.40
2019-05-03T11:19:55.344Z,2.50
2019-05-03T11:20:55.307Z,2.30
2019-05-03T11:21:55.276Z,2.20
2019-05-03T11:22:55.258Z,2.60
2019-05-03T11:23:55.230Z,2.60
2019-05-03T11:24:55.174Z,2.40
2019-05-03T11:25:55.465Z,2.80
2019-05-03T11:26:55.821Z,2.60
2019-05-03T11:27:55.295Z,2.80
2019-05-03T11:28:59.247Z,2.60
2019-05-03T11:29:55.595Z,3.00
2019-05-03T11:30:59.906Z,2.70
2019-05-03T11:31:55.152Z,2.60
2019-05-03T11:32:55.603Z,2.80
2019-05-03T11:33:55.306Z,3.10
2019-05-03T11:34:55.417Z,2.80
2019-05-03T11:35:55.267Z,4.40
2019-05-03T11:36:54.975Z,3.30
2019-05-03T11:37:54.718Z,2.60
2019-05-03T11:38:55.865Z,2.80
2019-05-03T11:39:55.845Z,2.70
2019-05-03T11:40:55.960Z,2.80
2019-05-03T11:41:54.571Z,2.90
2019-05-03T11:42:55.363Z,2.80
2019-05-03T11:43:54.499Z,2.70
2019-05-03T11:44:54.484Z,2.50
2019-05-03T11:45:55.430Z,2.80
2019-05-03T11:46:55.114Z,2.90
2019-05-03T11:47:55.055Z,2.50
2019-05-03T11:48:54.819Z,2.70
2019-05-03T11:49:54.741Z,2.60
2019-05-03T11:50:54.632Z,2.30
2019-05-03T11:51:55.644Z,2.40
2019-05-03T11:52:55.376Z,2.90
2019-05-03T11:53:54.152Z,2.60
2019-05-03T11:54:55.304Z,2.80
2019-05-03T11:55:55.139Z,2.50
2019-05-03T11:56:55.614Z,2.60
2019-05-03T11:57:56.396Z,2.60
2019-05-03T11:58:54.984Z,2.30
2019-05-03T11:59:54.816Z,2.40
2019-05-03T12:01:11.157Z,2.60
2019-05-03T12:01:55.327Z,2.50
2019-05-03T12:02:55.587Z,2.60
2019-05-03T12:03:55.526Z,2.60
2019-05-03T12:04:55.268Z,2.50
2019-05-03T12:05:55.222Z,2.60
2019-05-03T12:06:55.017Z,2.80
2019-05-03T12:07:54.786Z,2.50
2019-05-03T12:08:55.437Z,2.70
2019-05-03T12:09:54.674Z,2.50
2019-05-03T12:10:58.563Z,3.10
2019-05-03T12:11:55.323Z,2.50
2019-05-03T12:12:55.310Z,2.60
2019-05-03T12:14:02.421Z,3.10
2019-05-03T12:14:54.829Z,2.90
2019-05-03T12:15:55.179Z,2.80
2019-05-03T12:17:18.156Z,2.80
2019-05-03T12:17:56.321Z,2.90
2019-05-03T12:18:54.602Z,3.00
2019-05-03T12:19:56.726Z,3.00
2019-05-03T12:20:56.107Z,3.10
2019-05-03T12:21:53.791Z,3.10
2019-05-03T12:22:53.840Z,3.10
2019-05-03T12:23:55.957Z,3.20
2019-05-03T12:24:53.363Z,3.00
2019-05-03T12:25:53.725Z,3.00
2019-05-03T12:26:53.032Z,3.00
2019-05-03T12:27:53.002Z,2.50
2019-05-03T12:28:52.970Z,2.60
2019-05-03T12:29:52.929Z,2.90
2019-05-03T12:30:52.912Z,2.70
2019-05-03T12:31:54.669Z,2.90
2019-05-03T12:32:54.675Z,3.00
2019-05-03T12:33:54.880Z,2.70
2019-05-03T12:34:54.985Z,2.80
2019-05-03T12:35:54.843Z,2.90
2019-05-03T12:36:52.700Z,3.00
2019-05-03T12:37:52.699Z,3.00
2019-05-03T12:38:54.658Z,3.00
2019-05-03T12:39:54.728Z,3.00
2019-05-03T12:40:54.482Z,3.40
2019-05-03T12:41:52.540Z,2.80
2019-05-03T12:42:54.937Z,3.20
2019-05-03T12:43:55.026Z,3.00
2019-05-03T12:44:52.421Z,2.70
2019-05-03T12:45:52.404Z,2.90
2019-05-03T12:46:52.374Z,3.10
2019-05-03T12:47:52.313Z,2.80
2019-05-03T12:48:52.281Z,3.10
2019-05-03T12:49:52.418Z,3.20
2019-05-03T12:50:52.550Z,2.90
2019-05-03T12:51:52.224Z,2.70
2019-05-03T12:52:52.182Z,2.90
2019-05-03T12:53:52.127Z,2.80
2019-05-03T12:54:52.087Z,2.90
2019-05-03T12:55:52.045Z,3.00
2019-05-03T12:56:52.011Z,3.20
2019-05-03T12:57:51.985Z,3.00
2019-05-03T12:58:51.971Z,2.90
2019-05-03T12:59:51.915Z,2.90
2019-05-03T13:00:51.877Z,2.90
2019-05-03T13:01:51.856Z,3.20
2019-05-03T13:02:51.804Z,2.70
2019-05-03T13:03:51.807Z,3.10
2019-05-03T13:04:52.084Z,3.10
2019-05-03T13:05:51.705Z,3.20
2019-05-03T13:06:51.674Z,3.30
2019-05-03T13:07:51.633Z,2.90